Gering, NE (69341)

1:48 AM MDT on July 05, 2015 (GMT -0600)
Meadows | | Change Station
CLOSE
Current Station
Personal Weather Station
Location: Gering, NE
Elevation: 3999 ft
Nearby Weather Stations

Elev 3999 ft 41.82 °N, 103.68 °W | Updated 14 minutes ago

Clear
Clear
65.8 °F
Feels Like 65.8 °F
N
4.2
Wind Variable Wind from SSE

Today
High -- | Low -- °F
--% Chance of Precip.
Yesterday
High -- | Low -- °F
Precip. -- in
5:25 AM 8:32 PM
Waning Gibbous, 87% visible
Pressure 29.70 in
Visibility 10.0 miles
Clouds Clear
Dew Point 56 °F
Humidity 70%
Rainfall 0.00 in
Snow Depth Not available.
UV 0 out of 12
Pollen 5.50 out of 12
Air Quality Not available.
Flu Activity Not available.
METAR KBFF 050653Z AUTO 12006KT 10SM CLR 21/17 A2987 RMK AO2 SLP058 T02060167 403610183

More Conditions Fewer Conditions

Pressure 29.70 in
Visibility 10.0 miles
Clouds Clear
Dew Point 56 °F
Humidity 70%
Rainfall 0.00 in
Snow Depth Not available.
UV 0 out of 12
Pollen 5.50 out of 12
Air Quality Not available.
Flu Activity Not available.
METAR KBFF 050653Z AUTO 12006KT 10SM CLR 21/17 A2987 RMK AO2 SLP058 T02060167 403610183

More Conditions Fewer Conditions

10-Day Weather Forecast

×

Almanac

Astronomy

Jul. 05, 2015 Rise Set
Actual Time
Civil Twilight
Nautical Twilight
Astronomical Twilight
Moon
Length of Visible Light
Length of Day
Tomorrow will be .
, % of the Moon is Illuminated

Today's Extremes

State Highs State Lows

Community

WunderPhotos

Upload Photos

1,835,215 photos uploaded!

WunderBlogs® & News

Nearby

Air Quality

  Air Quality AQ Index Pollutant
Not available.

Snow Depth

Station Depth Elevation

Earthquake Activity

City Distance Mag. Time & Date
Minimum magnitude displayed is 2.5.

Coastal Water Temperatures

Place Temperature

Stations

Nearby Weather Stations

Station Location Temp. Windchill Dew Point Humidity Wind Precip. Elev Updated Type